Главная страница
METAR-TAF:

METAR-TAF

Аэропорты :

Цзянбэй

Чунцин, Китай

широта: 29-31N, долгота: 106-29E, высота над уровнем моря: 351 м

Текущие метеонаблюдения

Эта сводка был подготовлена 33 минут назад, в 10:00 UTC
Ветер 8 Узел от юго-юго-восточный, изменяющийся между юго-восточный и южный-юго-западный
Температура 37°C
Влажность 37%
Давление 1002 hPa
Видимость 10 км и более
Нет облачности ниже 1500 м, и нет кучево-дождевой облачности

METAR: ZUCK 161000Z 16004MPS 130V200 CAVOK 37/20 Q1002 NOSIG

Время: 18:33 (10:33 UTC)

Прогноз

Эта сводка был подготовлена 7 часа и 23 минут назад, в 03:10 UTC
Прогноз действительный с 16-го 06 UTC до 17-го 06 UTC
Ветер 8 Узел от восточно-юго-восточный
Видимость: 6000 м
Отдельные облака на высоте 4000 фута

TAF: ZUCK 160310Z 1606/1706 12004MPS 6000 SCT040 TX38/1607Z TN29/1622Z

Метеонаблюдения и прогнозы для более 4000 аэропортов (сводки METAR и TAF).

Имеющиеся станции представлены на карте желтыми и красными точками.

Чтобы увидеть название станции, наведите на нее мышь.

Затем щелкните, чтобы увидеть метеонаблюдения и метеопрогнозы.

Управление картой: чтобы увеличить масштаб, щелкните зеленые кнопки с черным крестиком; чтобы уменьшить масштаб, щелкните зеленую кнопку с тире; для просмотра соседних карт щелкайте зеленые стрелки.


METAR-TAF: